createdAt,value
2018-06-12T00:00:57.598Z,13.70
2018-06-12T00:03:26.018Z,13.27
2018-06-12T00:05:58.201Z,12.23
2018-06-12T00:08:26.966Z,10.50
2018-06-12T00:11:00.481Z,10.97
2018-06-12T00:13:29.202Z,11.70
2018-06-12T00:16:01.356Z,11.30
2018-06-12T00:18:29.805Z,12.70
2018-06-12T00:21:13.284Z,12.80
2018-06-12T00:23:43.997Z,11.50
2018-06-12T00:26:13.158Z,11.17
2018-06-12T00:28:41.973Z,11.10
2018-06-12T00:31:10.643Z,10.23
2018-06-12T00:33:40.078Z,10.03
2018-06-12T00:36:12.799Z,9.73
2018-06-12T00:38:41.233Z,9.70
2018-06-12T00:41:14.012Z,9.70
2018-06-12T00:43:43.051Z,9.80
2018-06-12T00:46:15.634Z,9.97
2018-06-12T00:48:44.490Z,10.33
2018-06-12T00:51:25.579Z,9.10
2018-06-12T00:53:54.473Z,9.90
2018-06-12T00:56:34.120Z,10.70
2018-06-12T00:59:03.160Z,10.50
2018-06-12T01:01:32.458Z,8.83
2018-06-12T01:04:01.656Z,9.80
2018-06-12T01:06:30.360Z,9.50
2018-06-12T01:08:59.493Z,10.20
2018-06-12T01:11:27.930Z,10.20
2018-06-12T01:13:56.352Z,9.30
2018-06-12T01:16:26.468Z,10.43
2018-06-12T01:18:55.285Z,10.57
2018-06-12T01:21:27.324Z,11.10
2018-06-12T01:23:56.609Z,10.47
2018-06-12T01:26:32.064Z,10.93
2018-06-12T01:29:00.976Z,12.27
2018-06-12T01:31:32.485Z,12.00
2018-06-12T01:34:01.397Z,11.70
2018-06-12T01:36:42.294Z,11.80
2018-06-12T01:39:12.372Z,11.33
2018-06-12T01:41:41.270Z,11.90
2018-06-12T01:44:09.709Z,10.73
2018-06-12T01:46:39.771Z,11.77
2018-06-12T01:49:10.529Z,12.50
2018-06-12T01:51:40.846Z,13.20
2018-06-12T01:54:10.185Z,12.13
2018-06-12T01:56:42.320Z,11.90
2018-06-12T01:59:12.086Z,12.37
2018-06-12T02:01:45.217Z,13.37
2018-06-12T02:04:14.119Z,11.67
2018-06-12T02:06:47.566Z,12.33
2018-06-12T02:09:16.327Z,13.47
2018-06-12T02:11:49.088Z,12.73
2018-06-12T02:14:18.614Z,12.70
2018-06-12T02:16:51.709Z,13.47
2018-06-12T02:19:20.122Z,12.97
2018-06-12T02:21:52.421Z,13.43
2018-06-12T02:24:21.557Z,13.53
2018-06-12T02:26:53.764Z,13.73
2018-06-12T02:29:22.657Z,13.70
2018-06-12T02:31:56.136Z,13.43
2018-06-12T02:34:26.107Z,13.63
2018-06-12T02:37:00.032Z,13.30
2018-06-12T02:39:29.388Z,14.13
2018-06-12T02:42:03.805Z,14.00
2018-06-12T02:44:32.697Z,14.23
2018-06-12T02:47:02.611Z,14.20
2018-06-12T02:49:32.190Z,14.67
2018-06-12T02:52:05.264Z,14.23
2018-06-12T02:54:35.234Z,14.33
2018-06-12T02:57:08.154Z,15.43
2018-06-12T02:59:36.932Z,15.30
2018-06-12T03:02:18.613Z,15.67
2018-06-12T03:04:47.400Z,15.07
2018-06-12T03:07:16.528Z,15.63
2018-06-12T03:09:45.022Z,14.77
2018-06-12T03:12:14.536Z,14.20
2018-06-12T03:14:45.312Z,16.40
2018-06-12T03:17:16.878Z,16.17
2018-06-12T03:19:47.209Z,16.73
2018-06-12T03:22:19.346Z,17.63
2018-06-12T03:24:48.224Z,16.83
2018-06-12T03:27:20.342Z,18.17
2018-06-12T03:29:50.196Z,17.17
2018-06-12T03:32:24.513Z,17.23
2018-06-12T03:34:53.369Z,16.17
2018-06-12T03:37:24.170Z,17.97
2018-06-12T03:39:53.334Z,17.90
2018-06-12T03:42:25.673Z,17.93
2018-06-12T03:44:54.462Z,19.00
2018-06-12T03:47:27.498Z,17.67
2018-06-12T03:49:56.437Z,17.83
2018-06-12T03:52:31.173Z,17.60
2018-06-12T03:55:00.237Z,17.17
2018-06-12T03:57:32.669Z,18.57
2018-06-12T04:00:01.090Z,18.30
2018-06-12T04:02:34.024Z,17.77
2018-06-12T04:05:02.879Z,18.07
2018-06-12T04:07:43.740Z,19.60
2018-06-12T04:10:12.865Z,16.73
2018-06-12T04:12:41.236Z,18.70
2018-06-12T04:15:10.153Z,18.17
2018-06-12T04:17:41.685Z,18.80
2018-06-12T04:20:11.201Z,17.33
2018-06-12T04:22:43.039Z,19.70
2018-06-12T04:25:11.897Z,18.00
2018-06-12T04:27:44.675Z,18.07
2018-06-12T04:30:13.614Z,18.67
2018-06-12T04:32:54.941Z,18.70
2018-06-12T04:35:24.001Z,18.60
2018-06-12T04:37:52.485Z,20.27
2018-06-12T04:40:21.313Z,20.13
2018-06-12T04:42:52.145Z,20.30
2018-06-12T04:45:21.912Z,20.97
2018-06-12T04:47:54.266Z,20.93
2018-06-12T04:50:23.637Z,20.83
2018-06-12T04:52:55.706Z,20.53
2018-06-12T04:55:24.685Z,20.87
2018-06-12T04:57:57.867Z,22.23
2018-06-12T05:00:26.340Z,20.77
2018-06-12T05:02:59.171Z,21.80
2018-06-12T05:05:27.917Z,21.83
2018-06-12T05:08:01.430Z,22.17
2018-06-12T05:10:30.124Z,22.67
2018-06-12T05:13:03.588Z,22.70
2018-06-12T05:15:33.069Z,23.13
2018-06-12T05:18:07.816Z,23.13
2018-06-12T05:20:38.290Z,22.47
2018-06-12T05:23:12.594Z,23.17
2018-06-12T05:25:41.421Z,21.97
2018-06-12T05:28:12.190Z,23.47
2018-06-12T05:30:40.617Z,23.63
2018-06-12T05:33:21.877Z,24.53
2018-06-12T05:35:50.988Z,23.43
2018-06-12T05:38:20.277Z,23.13
2018-06-12T05:40:49.738Z,24.50
2018-06-12T05:43:20.188Z,26.40
2018-06-12T05:45:49.029Z,25.30
2018-06-12T05:48:21.024Z,24.60
2018-06-12T05:50:57.601Z,26.30
2018-06-12T05:53:27.908Z,25.33
2018-06-12T05:55:58.353Z,26.57
2018-06-12T05:58:28.682Z,26.07
2018-06-12T06:01:01.515Z,27.00
2018-06-12T06:03:30.939Z,25.23
2018-06-12T06:05:59.436Z,25.50
2018-06-12T06:08:29.639Z,26.17
2018-06-12T06:10:59.050Z,25.20
2018-06-12T06:13:30.869Z,24.73
2018-06-12T06:16:00.292Z,26.93
2018-06-12T06:18:34.064Z,26.03
2018-06-12T06:21:02.557Z,25.40
2018-06-12T06:23:35.349Z,26.23
2018-06-12T06:26:04.871Z,25.87
2018-06-12T06:28:37.400Z,26.53
2018-06-12T06:31:06.280Z,26.07
2018-06-12T06:33:40.179Z,25.67
2018-06-12T06:36:09.977Z,26.17
2018-06-12T06:38:42.253Z,24.70
2018-06-12T06:41:13.532Z,24.43
2018-06-12T06:43:46.530Z,25.13
2018-06-12T06:46:17.485Z,24.77
2018-06-12T06:48:52.695Z,25.03
2018-06-12T06:51:23.238Z,25.87
2018-06-12T06:53:52.077Z,25.47
2018-06-12T06:56:21.598Z,23.53
2018-06-12T06:58:50.774Z,24.10
2018-06-12T07:01:19.269Z,25.80
2018-06-12T07:03:52.229Z,24.73
2018-06-12T07:06:21.192Z,22.17
2018-06-12T07:08:54.549Z,22.70
2018-06-12T07:11:24.526Z,21.97
2018-06-12T07:14:06.333Z,23.13
2018-06-12T07:16:36.197Z,24.07
2018-06-12T07:19:05.637Z,22.03
2018-06-12T07:21:34.463Z,21.80
2018-06-12T07:24:03.900Z,20.90
2018-06-12T07:26:33.011Z,21.77
2018-06-12T07:29:05.172Z,22.93
2018-06-12T07:31:34.020Z,21.97
2018-06-12T07:34:07.351Z,21.07
2018-06-12T07:36:38.591Z,21.30
2018-06-12T07:39:12.782Z,20.33
2018-06-12T07:41:41.866Z,20.60
2018-06-12T07:44:11.762Z,19.63
2018-06-12T07:46:41.208Z,19.63
2018-06-12T07:49:12.843Z,19.07
2018-06-12T07:51:42.733Z,21.63
2018-06-12T07:54:24.825Z,21.53
2018-06-12T07:56:53.589Z,19.27
2018-06-12T07:59:22.566Z,19.13
2018-06-12T08:01:51.748Z,19.17
2018-06-12T08:04:20.841Z,20.27
2018-06-12T08:06:49.628Z,18.57
2018-06-12T08:09:22.511Z,18.40
2018-06-12T08:11:53.173Z,19.30
2018-06-12T08:14:23.389Z,18.77
2018-06-12T08:16:52.212Z,18.83
2018-06-12T08:19:25.998Z,19.80
2018-06-12T08:21:55.217Z,18.33
2018-06-12T08:24:26.570Z,16.67
2018-06-12T08:26:56.990Z,17.47
2018-06-12T08:29:28.073Z,19.00
2018-06-12T08:31:56.508Z,17.57
2018-06-12T08:34:30.467Z,17.27
2018-06-12T08:36:59.326Z,17.53
2018-06-12T08:39:32.728Z,17.83
2018-06-12T08:42:02.417Z,18.20
2018-06-12T08:44:34.629Z,18.73
2018-06-12T08:47:05.077Z,18.23
2018-06-12T08:49:47.202Z,16.73
2018-06-12T08:52:16.171Z,16.80
2018-06-12T08:54:46.549Z,18.57
2018-06-12T08:57:16.220Z,20.27
2018-06-12T08:59:46.405Z,16.60
2018-06-12T09:02:15.197Z,16.77
2018-06-12T09:04:44.070Z,17.27
2018-06-12T09:07:12.945Z,17.13
2018-06-12T09:09:54.569Z,16.23
2018-06-12T09:12:23.601Z,17.63
2018-06-12T09:14:53.661Z,18.13
2018-06-12T09:17:22.759Z,17.70
2018-06-12T09:19:53.473Z,16.40
2018-06-12T09:22:22.312Z,18.37
2018-06-12T09:24:52.149Z,18.43
2018-06-12T09:27:22.186Z,18.40
2018-06-12T09:30:10.270Z,17.17
2018-06-12T09:32:40.059Z,17.03
2018-06-12T09:37:32.559Z,16.30
2018-06-12T09:40:03.266Z,17.47
2018-06-12T09:42:32.570Z,19.47
2018-06-12T09:45:03.173Z,18.70
2018-06-12T09:47:32.476Z,18.13
2018-06-12T09:50:07.625Z,20.33
2018-06-12T09:52:38.941Z,18.93
2018-06-12T09:55:09.623Z,18.40
2018-06-12T09:57:38.742Z,18.67
2018-06-12T10:00:09.026Z,17.50
2018-06-12T10:02:38.733Z,17.70
2018-06-12T10:05:12.617Z,17.33
2018-06-12T10:07:42.369Z,16.10
2018-06-12T10:10:15.623Z,16.00
2018-06-12T10:12:44.152Z,16.10
2018-06-12T10:15:14.536Z,15.63
2018-06-12T10:17:44.054Z,14.93
2018-06-12T10:20:25.752Z,14.43
2018-06-12T10:22:54.982Z,16.37
2018-06-12T10:25:23.839Z,15.63
2018-06-12T10:27:52.356Z,15.87
2018-06-12T10:30:25.333Z,16.20
2018-06-12T10:32:53.888Z,15.87
2018-06-12T10:35:31.818Z,15.80
2018-06-12T10:38:02.525Z,15.07
2018-06-12T10:40:39.260Z,14.93
2018-06-12T10:43:09.738Z,14.13
2018-06-12T10:45:38.619Z,15.00
2018-06-12T10:48:07.542Z,14.53
2018-06-12T10:50:37.582Z,15.70
2018-06-12T10:53:07.127Z,14.27
2018-06-12T10:55:37.227Z,14.97
2018-06-12T10:58:06.069Z,14.73
2018-06-12T11:00:37.173Z,14.90
2018-06-12T11:03:06.645Z,14.03
2018-06-12T11:05:37.309Z,14.33
2018-06-12T11:08:06.096Z,14.20
2018-06-12T11:10:38.382Z,14.17
2018-06-12T11:13:07.875Z,13.40
2018-06-12T11:15:49.220Z,14.90
2018-06-12T11:18:18.505Z,14.87
2018-06-12T11:20:47.667Z,13.93
2018-06-12T11:23:19.595Z,13.70
2018-06-12T11:25:48.052Z,12.87
2018-06-12T11:28:24.710Z,13.77
2018-06-12T11:30:53.722Z,13.20
2018-06-12T11:33:23.117Z,14.60
2018-06-12T11:35:52.589Z,12.73
2018-06-12T11:38:23.701Z,12.63
2018-06-12T11:40:52.393Z,14.60
2018-06-12T11:43:20.973Z,13.93
2018-06-12T11:45:55.067Z,14.73
2018-06-12T11:48:25.931Z,14.40
2018-06-12T11:50:56.432Z,14.13
2018-06-12T11:53:30.216Z,13.80
2018-06-12T11:55:58.726Z,14.23
2018-06-12T11:58:27.974Z,15.53
2018-06-12T12:01:01.090Z,15.57
2018-06-12T12:03:30.342Z,15.43
2018-06-12T12:06:02.089Z,16.40
2018-06-12T12:08:30.922Z,16.37
2018-06-12T12:11:04.119Z,17.23
2018-06-12T12:13:33.120Z,17.17
2018-06-12T12:16:07.815Z,17.83
2018-06-12T12:18:36.952Z,17.83
2018-06-12T12:21:19.048Z,18.57
2018-06-12T12:23:49.413Z,19.20
2018-06-12T12:26:18.277Z,18.23
2018-06-12T12:28:48.618Z,18.17
2018-06-12T12:31:18.109Z,20.23
2018-06-12T12:33:47.178Z,20.03
2018-06-12T12:36:15.686Z,18.73
2018-06-12T12:38:45.479Z,18.30
2018-06-12T12:41:26.950Z,19.67
2018-06-12T12:43:56.166Z,19.33
2018-06-12T12:46:25.042Z,20.00
2018-06-12T12:48:56.611Z,18.73
2018-06-12T12:51:25.525Z,20.20
2018-06-12T12:53:55.350Z,19.33
2018-06-12T12:56:24.273Z,19.60
2018-06-12T12:58:53.377Z,19.30
2018-06-12T13:01:25.309Z,19.50
2018-06-12T13:03:54.715Z,19.23
2018-06-12T13:06:28.706Z,21.60
2018-06-12T13:11:29.234Z,25.37
2018-06-12T13:13:57.944Z,23.90
2018-06-12T13:16:36.684Z,26.40
2018-06-12T13:19:07.055Z,22.03
2018-06-12T13:21:36.176Z,24.23
2018-06-12T13:24:04.857Z,23.70
2018-06-12T13:26:38.756Z,24.43
2018-06-12T13:29:09.205Z,24.33
2018-06-12T13:31:39.182Z,23.87
2018-06-12T13:34:09.178Z,21.00
2018-06-12T13:36:45.537Z,22.07
2018-06-12T13:39:14.626Z,22.20
2018-06-12T13:41:46.652Z,23.33
2018-06-12T13:44:16.694Z,22.00
2018-06-12T13:46:46.546Z,22.87
2018-06-12T13:49:18.127Z,22.37
2018-06-12T13:51:51.194Z,22.67
2018-06-12T13:54:20.823Z,23.07
2018-06-12T13:56:53.197Z,22.17
2018-06-12T13:59:22.764Z,22.10
2018-06-12T14:01:51.188Z,23.33
2018-06-12T14:04:19.915Z,21.83
2018-06-12T14:06:56.039Z,21.93
2018-06-12T14:09:24.885Z,23.33
2018-06-12T14:11:59.386Z,20.93
2018-06-12T14:14:29.796Z,21.30
2018-06-12T14:17:00.350Z,18.30
2018-06-12T14:19:28.966Z,19.10
2018-06-12T14:22:02.363Z,20.27
2018-06-12T14:24:31.824Z,19.40
2018-06-12T14:27:03.030Z,19.87
2018-06-12T14:29:31.625Z,18.57
2018-06-12T14:32:14.111Z,18.70
2018-06-12T14:34:43.813Z,18.83
2018-06-12T14:37:12.343Z,20.00
2018-06-12T14:39:40.954Z,20.40
2018-06-12T14:42:09.689Z,20.03
2018-06-12T14:44:38.562Z,20.20
2018-06-12T14:47:19.723Z,21.23
2018-06-12T14:49:50.781Z,21.17
2018-06-12T14:52:19.245Z,20.27
2018-06-12T14:54:48.447Z,20.70
2018-06-12T14:57:20.390Z,19.60
2018-06-12T14:59:53.462Z,20.40
2018-06-12T15:02:24.091Z,20.43
2018-06-12T15:04:56.014Z,19.60
2018-06-12T15:07:25.389Z,19.60
2018-06-12T15:09:53.785Z,20.37
2018-06-12T15:12:23.213Z,19.00
2018-06-12T15:14:52.185Z,21.27
2018-06-12T15:17:23.206Z,21.40
2018-06-12T15:19:52.792Z,19.67
2018-06-12T15:22:34.261Z,22.97
2018-06-12T15:25:03.103Z,19.50
2018-06-12T15:27:33.169Z,21.33
2018-06-12T15:30:05.688Z,21.27
2018-06-12T15:32:35.049Z,20.00
2018-06-12T15:35:05.218Z,19.87
2018-06-12T15:37:34.618Z,19.60
2018-06-12T15:40:03.529Z,20.30
2018-06-12T15:42:32.649Z,18.73
2018-06-12T15:45:01.494Z,19.07
2018-06-12T15:47:34.684Z,18.47
2018-06-12T15:50:05.156Z,19.57
2018-06-12T15:52:37.602Z,18.43
2018-06-12T15:55:06.453Z,18.80
2018-06-12T15:57:47.205Z,17.60
2018-06-12T16:00:15.930Z,18.07
2018-06-12T16:02:45.177Z,17.97
2018-06-12T16:05:15.461Z,17.93
2018-06-12T16:07:46.185Z,18.00
2018-06-12T16:10:15.251Z,17.23
2018-06-12T16:12:48.190Z,17.07
2018-06-12T16:15:17.633Z,17.97
2018-06-12T16:17:52.774Z,17.90
2018-06-12T16:20:21.527Z,18.20
2018-06-12T16:22:50.345Z,19.13
2018-06-12T16:25:20.709Z,17.70
2018-06-12T16:27:52.288Z,18.63
2018-06-12T16:30:21.421Z,18.60
2018-06-12T16:33:03.005Z,18.73
2018-06-12T16:35:33.085Z,18.33
2018-06-12T16:38:01.513Z,18.07
2018-06-12T16:40:30.071Z,18.27
2018-06-12T16:43:00.305Z,16.97
2018-06-12T16:45:29.389Z,18.17
2018-06-12T16:48:02.650Z,17.83
2018-06-12T16:50:32.350Z,20.10
2018-06-12T16:53:04.233Z,18.60
2018-06-12T16:55:32.689Z,17.17
2018-06-12T16:58:14.189Z,16.97
2018-06-12T17:00:43.069Z,16.80
2018-06-12T17:03:12.535Z,16.70
2018-06-12T17:05:41.690Z,17.43
2018-06-12T17:08:11.725Z,16.43
2018-06-12T17:10:40.661Z,16.93
2018-06-12T17:13:21.925Z,15.77
2018-06-12T17:15:52.076Z,16.60
2018-06-12T17:18:21.183Z,16.33
2018-06-12T17:20:49.828Z,17.03
2018-06-12T17:23:20.544Z,15.00
2018-06-12T17:25:50.779Z,16.50
2018-06-12T17:28:22.953Z,14.70
2018-06-12T17:30:52.314Z,15.93
2018-06-12T17:33:24.155Z,15.33
2018-06-12T17:35:53.169Z,14.67
2018-06-12T17:38:25.163Z,15.67
2018-06-12T17:40:54.155Z,15.27
2018-06-12T17:43:26.770Z,14.80
2018-06-12T17:45:56.291Z,16.47
2018-06-12T17:48:29.178Z,16.07
2018-06-12T17:50:59.488Z,15.30
2018-06-12T17:53:31.187Z,15.73
2018-06-12T17:56:01.090Z,14.87
2018-06-12T17:58:33.508Z,15.13
2018-06-12T18:01:05.370Z,16.07
2018-06-12T18:03:35.598Z,15.43
2018-06-12T18:06:07.385Z,14.43
2018-06-12T18:08:39.299Z,15.60
2018-06-12T18:11:13.150Z,17.03
2018-06-12T18:13:43.189Z,16.90
2018-06-12T18:16:13.803Z,16.80
2018-06-12T18:18:43.632Z,17.20
2018-06-12T18:21:13.241Z,16.37
2018-06-12T18:23:42.324Z,16.40
2018-06-12T18:26:12.302Z,17.03
2018-06-12T18:28:47.195Z,17.27
2018-06-12T18:31:16.730Z,15.93
2018-06-12T18:33:50.107Z,17.83
2018-06-12T18:36:24.003Z,17.90
2018-06-12T18:42:04.324Z,17.87
2018-06-12T18:44:48.444Z,19.63
2018-06-12T18:47:24.604Z,19.87
2018-06-12T18:49:58.106Z,19.43
2018-06-12T18:52:28.081Z,20.33
2018-06-12T18:54:59.122Z,19.37
2018-06-12T18:57:36.806Z,20.90
2018-06-12T19:00:07.343Z,19.03
2018-06-12T19:02:41.660Z,19.00
2018-06-12T19:07:53.454Z,19.50
2018-06-12T19:10:24.245Z,19.00
2018-06-12T19:12:54.769Z,19.60
2018-06-12T19:15:24.772Z,18.70
2018-06-12T19:18:01.602Z,19.60
2018-06-12T19:20:33.396Z,20.30
2018-06-12T19:23:13.742Z,19.57
2018-06-12T19:25:48.493Z,18.77
2018-06-12T19:28:27.359Z,18.93
2018-06-12T19:31:12.062Z,20.07
2018-06-12T19:33:45.797Z,18.73
2018-06-12T19:36:28.699Z,18.77
2018-06-12T19:39:06.208Z,19.23
2018-06-12T19:44:22.022Z,17.63
2018-06-12T19:49:36.183Z,17.93
2018-06-12T19:52:05.482Z,16.23
2018-06-12T19:54:35.343Z,16.83
2018-06-12T19:57:04.699Z,15.17
2018-06-12T19:59:35.440Z,16.00
2018-06-12T20:02:07.096Z,16.53
2018-06-12T20:04:36.299Z,15.80
2018-06-12T20:07:05.178Z,14.87
2018-06-12T20:09:35.235Z,14.90
2018-06-12T20:12:04.802Z,14.50
2018-06-12T20:14:37.309Z,13.87
2018-06-12T20:17:06.393Z,14.20
2018-06-12T20:19:37.136Z,14.27
2018-06-12T20:22:08.042Z,14.77
2018-06-12T20:24:37.737Z,13.80
2018-06-12T20:29:52.300Z,14.00
2018-06-12T20:32:21.691Z,15.00
2018-06-12T20:34:53.638Z,13.87
2018-06-12T20:37:24.883Z,13.97
2018-06-12T20:40:00.621Z,14.40
2018-06-12T20:42:31.714Z,14.20
2018-06-12T20:45:01.277Z,14.80
2018-06-12T20:47:30.107Z,15.00
2018-06-12T20:50:00.794Z,12.97
2018-06-12T20:52:33.474Z,13.33
2018-06-12T20:55:07.248Z,13.73
2018-06-12T20:57:53.488Z,12.47
2018-06-12T21:00:34.814Z,13.97
2018-06-12T21:03:07.150Z,13.73
2018-06-12T21:05:37.039Z,12.87
2018-06-12T21:08:06.741Z,12.67
2018-06-12T21:10:36.187Z,13.97
2018-06-12T21:13:08.226Z,14.47
2018-06-12T21:15:40.299Z,13.80
2018-06-12T21:22:49.162Z,14.00
2018-06-12T21:25:19.844Z,13.07
2018-06-12T21:27:49.172Z,13.97
2018-06-12T21:30:18.280Z,14.13
2018-06-12T21:32:49.295Z,13.77
2018-06-12T21:35:20.097Z,14.00
2018-06-12T21:37:49.707Z,12.80
2018-06-12T21:40:19.239Z,13.30
2018-06-12T21:42:49.531Z,12.50
2018-06-12T21:45:22.629Z,13.13
2018-06-12T21:47:53.042Z,12.63
2018-06-12T21:50:21.608Z,11.63
2018-06-12T21:52:51.736Z,11.87
2018-06-12T21:55:25.142Z,11.83
2018-06-12T21:57:55.714Z,11.60
2018-06-12T22:00:36.275Z,11.67
2018-06-12T22:03:08.102Z,11.07
2018-06-12T22:05:38.437Z,11.30
2018-06-12T22:08:09.168Z,11.00
2018-06-12T22:10:38.664Z,11.40
2018-06-12T22:13:09.225Z,10.17
2018-06-12T22:15:38.375Z,12.80
2018-06-12T22:18:07.649Z,11.10
2018-06-12T22:20:36.796Z,11.67
2018-06-12T22:23:06.173Z,10.40
2018-06-12T22:25:36.314Z,9.93
2018-06-12T22:28:07.262Z,10.07
2018-06-12T22:30:37.650Z,10.00
2018-06-12T22:33:06.805Z,10.03
2018-06-12T22:35:37.163Z,10.80
2018-06-12T22:38:06.686Z,10.27
2018-06-12T22:40:36.185Z,9.43
2018-06-12T22:43:04.621Z,9.07
2018-06-12T22:45:37.438Z,8.70
2018-06-12T22:48:06.808Z,9.10
2018-06-12T22:50:37.166Z,8.73
2018-06-12T22:53:06.163Z,9.30
2018-06-12T22:55:39.557Z,9.73
2018-06-12T22:58:09.341Z,7.63
2018-06-12T23:00:43.256Z,9.20
2018-06-12T23:03:11.928Z,8.73
2018-06-12T23:05:44.454Z,8.53
2018-06-12T23:08:13.327Z,8.37
2018-06-12T23:10:46.112Z,8.37
2018-06-12T23:13:14.997Z,7.80
2018-06-12T23:15:56.804Z,8.23
2018-06-12T23:18:25.525Z,8.30
2018-06-12T23:21:07.181Z,8.43
2018-06-12T23:23:36.099Z,7.83
2018-06-12T23:26:04.488Z,8.20
2018-06-12T23:28:34.111Z,7.87
2018-06-12T23:31:03.317Z,7.83
2018-06-12T23:33:32.275Z,7.43
2018-06-12T23:36:01.126Z,7.63
2018-06-12T23:38:30.197Z,8.30
2018-06-12T23:40:58.597Z,6.90
2018-06-12T23:43:28.472Z,7.40
2018-06-12T23:46:00.340Z,6.70
2018-06-12T23:48:28.761Z,7.10
2018-06-12T23:51:04.594Z,7.23
2018-06-12T23:53:33.701Z,7.80
2018-06-12T23:56:06.002Z,6.93
2018-06-12T23:58:34.565Z,7.53
